Time;durP1;ratioP1;P1;durP2;ratioP2;P2;SDS_P1;SDS_P2;PMS_P1;PMS_P2;Temp;Humidity;BMP_temperature;BMP_pressure;BME280_temperature;BME280_humidity;BME280_pressure;Samples;Min_cycle;Max_cycle;Signal;HPM_P1;HPM_P2
2023/09/03 00:00:52;;;;;;;18.00;10.43;;;13.20;99.90;;;;;;5086591;28;20048;-59
2023/09/03 00:03:20;;;;;;;21.13;11.52;;;13.20;99.90;;;;;;5052154;28;20510;-58
2023/09/03 00:05:56;;;;;;;18.77;13.25;;;13.20;99.90;;;;;;5100109;28;20036;-58
2023/09/03 00:08:24;;;;;;;23.02;13.90;;;13.20;99.90;;;;;;5087866;28;20612;-59
2023/09/03 00:10:53;;;;;;;23.13;14.05;;;13.20;99.90;;;;;;5087536;28;20040;-59
2023/09/03 00:13:21;;;;;;;25.45;14.35;;;13.20;99.90;;;;;;5084886;28;20070;-58
2023/09/03 00:15:49;;;;;;;26.58;16.05;;;13.20;99.90;;;;;;5093106;28;20483;-58
2023/09/03 00:18:17;;;;;;;23.25;14.82;;;13.20;99.90;;;;;;5088735;28;20044;-58
2023/09/03 00:21:00;;;;;;;26.63;15.35;;;13.10;99.90;;;;;;5086914;28;20040;-59
2023/09/03 00:23:29;;;;;;;29.52;15.57;;;13.10;99.90;;;;;;5082358;28;20399;-59
2023/09/03 00:25:57;;;;;;;27.65;15.95;;;13.10;99.90;;;;;;5110214;28;20508;-58
2023/09/03 00:28:25;;;;;;;24.48;15.30;;;13.10;99.90;;;;;;5095238;28;20039;-59
2023/09/03 00:31:08;;;;;;;25.27;16.88;;;13.10;99.90;;;;;;5089050;28;20044;-59
2023/09/03 00:33:37;;;;;;;20.55;12.05;;;13.00;99.90;;;;;;5083121;28;20037;-59
2023/09/03 00:36:08;;;;;;;18.70;12.10;;;13.00;99.90;;;;;;5089433;28;20063;-59
2023/09/03 00:38:36;;;;;;;24.33;13.43;;;13.00;99.90;;;;;;5084499;28;20043;-58
2023/09/03 00:41:04;;;;;;;19.05;12.10;;;13.00;99.90;;;;;;5087241;28;20036;-58
2023/09/03 00:43:33;;;;;;;18.60;11.63;;;13.00;99.90;;;;;;5085340;28;20051;-59
2023/09/03 00:46:04;;;;;;;16.52;11.65;;;13.00;99.90;;;;;;5088266;28;20471;-59
2023/09/03 00:48:34;;;;;;;27.65;15.45;;;13.00;99.90;;;;;;5083661;28;20048;-59
2023/09/03 00:51:06;;;;;;;21.30;13.45;;;12.90;99.90;;;;;;5081867;28;20048;-59
2023/09/03 00:53:38;;;;;;;22.77;14.63;;;12.90;99.90;;;;;;5075797;28;20051;-59
2023/09/03 00:56:07;;;;;;;22.35;13.20;;;12.80;99.90;;;;;;5088012;28;20059;-58
2023/09/03 00:58:36;;;;;;;22.52;14.00;;;12.80;99.90;;;;;;5081373;28;20060;-58
2023/09/03 01:01:04;;;;;;;19.67;12.68;;;12.80;99.90;;;;;;5088260;28;20075;-59
2023/09/03 01:03:35;;;;;;;18.08;12.00;;;12.80;99.90;;;;;;5086758;28;20047;-59
2023/09/03 01:06:05;;;;;;;19.58;11.88;;;12.80;99.90;;;;;;5070400;28;20044;-59
2023/09/03 01:08:34;;;;;;;19.47;11.73;;;12.70;99.90;;;;;;5076418;28;20048;-58
2023/09/03 01:11:17;;;;;;;19.75;11.93;;;12.70;99.90;;;;;;5080966;28;20059;-58
2023/09/03 01:13:57;;;;;;;19.80;12.38;;;12.70;99.90;;;;;;5076116;28;20049;-58
2023/09/03 01:16:31;;;;;;;18.25;11.95;;;12.60;99.90;;;;;;5070866;28;20060;-58
2023/09/03 01:19:19;;;;;;;16.20;11.82;;;12.60;99.90;;;;;;5088432;28;20036;-58
2023/09/03 01:22:13;;;;;;;18.13;13.20;;;12.60;99.90;;;;;;5086679;28;20043;-59
2023/09/03 01:24:44;;;;;;;19.27;12.52;;;12.50;99.90;;;;;;5075877;28;20511;-58
2023/09/03 01:27:36;;;;;;;21.60;12.32;;;12.50;99.90;;;;;;5073122;28;20052;-59
2023/09/03 01:30:05;;;;;;;19.40;11.73;;;12.50;99.90;;;;;;5073212;28;20040;-58
2023/09/03 01:32:36;;;;;;;19.40;11.75;;;12.50;99.90;;;;;;5085590;28;20114;-59
2023/09/03 01:35:06;;;;;;;19.63;12.40;;;12.40;99.90;;;;;;5071275;28;20063;-59
2023/09/03 01:37:34;;;;;;;15.88;11.00;;;12.40;99.90;;;;;;5110885;28;20040;-59
2023/09/03 01:40:02;;;;;;;21.90;13.10;;;12.40;99.90;;;;;;5094662;28;20113;-59
2023/09/03 01:42:30;;;;;;;20.85;12.65;;;12.30;99.90;;;;;;5087167;28;20040;-59
2023/09/03 01:44:58;;;;;;;18.42;13.07;;;12.30;99.90;;;;;;5080479;28;20052;-59
2023/09/03 01:47:47;;;;;;;22.45;12.07;;;12.30;99.90;;;;;;5085600;28;20040;-59
2023/09/03 01:50:24;;;;;;;21.13;13.43;;;12.30;99.90;;;;;;5075973;28;20498;-59
2023/09/03 01:53:21;;;;;;;21.73;12.50;;;12.20;99.90;;;;;;5090494;28;20403;-58
2023/09/03 01:55:57;;;;;;;18.73;12.70;;;12.20;99.90;;;;;;5085553;28;20040;-59
2023/09/03 01:58:27;;;;;;;23.80;13.70;;;12.20;99.90;;;;;;5089345;28;20040;-59
2023/09/03 02:00:56;;;;;;;19.15;11.80;;;12.20;99.90;;;;;;5089725;28;20048;-59
2023/09/03 02:03:26;;;;;;;20.17;11.40;;;12.10;99.90;;;;;;5089727;28;20051;-60
2023/09/03 02:05:54;;;;;;;18.13;11.38;;;12.10;99.90;;;;;;5098882;28;20423;-59
2023/09/03 02:08:21;;;;;;;17.75;11.23;;;12.10;99.90;;;;;;5091926;28;20398;-58
2023/09/03 02:10:50;;;;;;;19.75;11.88;;;12.10;99.90;;;;;;5090210;28;20060;-58
2023/09/03 02:13:20;;;;;;;21.83;13.07;;;12.10;99.90;;;;;;5090518;28;20040;-58
2023/09/03 02:15:48;;;;;;;18.58;12.15;;;12.00;99.90;;;;;;5090219;28;20044;-58
2023/09/03 02:18:18;;;;;;;19.00;12.52;;;12.00;99.90;;;;;;5090706;28;20051;-58
2023/09/03 02:20:46;;;;;;;22.80;14.23;;;12.00;99.90;;;;;;5081586;28;20119;-59
2023/09/03 02:23:16;;;;;;;20.05;12.82;;;12.00;99.90;;;;;;5073281;28;21689;-58
2023/09/03 02:25:44;;;;;;;19.17;12.27;;;11.90;99.90;;;;;;5073248;28;20051;-59
2023/09/03 02:28:11;;;;;;;26.35;12.25;;;11.90;99.90;;;;;;5069953;28;20503;-58
2023/09/03 02:30:39;;;;;;;21.38;13.32;;;11.90;99.90;;;;;;5087723;28;20507;-58
2023/09/03 02:33:07;;;;;;;19.33;12.10;;;11.90;99.90;;;;;;5073112;28;20048;-58
2023/09/03 02:35:34;;;;;;;17.80;11.30;;;11.90;99.90;;;;;;5089071;28;20048;-58
2023/09/03 02:38:02;;;;;;;17.20;12.10;;;11.80;99.90;;;;;;5090108;28;20044;-58
2023/09/03 02:40:30;;;;;;;17.02;11.93;;;11.90;99.90;;;;;;5089657;28;20055;-58
2023/09/03 02:42:57;;;;;;;17.20;11.23;;;11.80;99.90;;;;;;5090336;28;20047;-63
2023/09/03 02:45:25;;;;;;;17.48;10.75;;;11.80;99.90;;;;;;5091396;28;20060;-58
2023/09/03 02:47:52;;;;;;;19.48;12.07;;;11.70;99.90;;;;;;5089325;28;20040;-58
2023/09/03 02:50:20;;;;;;;17.25;11.88;;;11.70;99.90;;;;;;5090867;28;20051;-58
2023/09/03 02:52:51;;;;;;;18.88;12.95;;;11.70;99.90;;;;;;5089177;28;20032;-58
2023/09/03 02:55:18;;;;;;;18.92;13.10;;;11.70;99.90;;;;;;5090805;28;20051;-59
2023/09/03 02:57:46;;;;;;;19.77;12.15;;;11.60;99.90;;;;;;5088988;28;20411;-59
2023/09/03 03:00:15;;;;;;;18.77;12.45;;;11.70;99.90;;;;;;5088932;28;20055;-59
2023/09/03 03:02:43;;;;;;;19.23;11.03;;;11.60;99.90;;;;;;5091084;28;20044;-59
2023/09/03 03:05:11;;;;;;;18.02;12.10;;;11.60;99.90;;;;;;5091881;28;20293;-58
2023/09/03 03:07:41;;;;;;;19.75;12.85;;;11.60;99.90;;;;;;5104290;28;20040;-58
2023/09/03 03:10:09;;;;;;;22.00;12.38;;;11.60;99.90;;;;;;5089418;28;20415;-58
2023/09/03 03:12:37;;;;;;;18.83;12.10;;;11.60;99.90;;;;;;5088766;28;20051;-58
2023/09/03 03:15:05;;;;;;;18.52;12.05;;;11.60;99.90;;;;;;5090849;28;20523;-59
2023/09/03 03:17:33;;;;;;;18.10;11.80;;;11.50;99.90;;;;;;5088770;28;20044;-58
2023/09/03 03:20:03;;;;;;;20.00;12.40;;;11.50;99.90;;;;;;5093517;28;20040;-58
2023/09/03 03:22:30;;;;;;;23.63;13.65;;;11.50;99.90;;;;;;5092579;28;20048;-59
2023/09/03 03:24:58;;;;;;;21.58;12.63;;;11.50;99.90;;;;;;5071721;28;20114;-58
2023/09/03 03:27:26;;;;;;;16.85;11.07;;;11.50;99.90;;;;;;5108716;28;20392;-58
2023/09/03 03:29:53;;;;;;;19.05;12.60;;;11.50;99.90;;;;;;5090122;28;20051;-58
2023/09/03 03:32:22;;;;;;;18.05;13.05;;;11.50;99.90;;;;;;5091570;28;20503;-58
2023/09/03 03:34:53;;;;;;;22.85;12.52;;;11.40;99.90;;;;;;5094124;28;20048;-58
2023/09/03 03:37:21;;;;;;;21.38;12.30;;;11.50;99.90;;;;;;5108593;28;20040;-58
2023/09/03 03:39:51;;;;;;;20.30;13.30;;;11.40;99.90;;;;;;5092620;28;20396;-58
2023/09/03 03:42:21;;;;;;;18.63;12.20;;;11.40;99.90;;;;;;5092948;28;20395;-58
2023/09/03 03:44:48;;;;;;;18.80;12.32;;;11.40;99.90;;;;;;5094057;28;20399;-58
2023/09/03 03:47:16;;;;;;;21.98;12.15;;;11.40;99.90;;;;;;5091112;28;20055;-59
2023/09/03 03:49:44;;;;;;;21.17;12.32;;;11.40;99.90;;;;;;5092463;28;20044;-59
2023/09/03 03:52:11;;;;;;;17.88;11.85;;;11.30;99.90;;;;;;5092534;28;20036;-59
2023/09/03 03:54:39;;;;;;;17.27;11.52;;;11.30;99.90;;;;;;5092948;28;20048;-58
2023/09/03 03:57:06;;;;;;;18.40;11.52;;;11.30;99.90;;;;;;5093756;28;20411;-58
2023/09/03 03:59:34;;;;;;;17.13;12.18;;;11.30;99.90;;;;;;5091686;28;20048;-59
2023/09/03 04:02:02;;;;;;;20.15;13.18;;;11.20;99.90;;;;;;5092200;28;20048;-58
2023/09/03 04:04:29;;;;;;;20.02;12.95;;;11.30;99.90;;;;;;5089367;28;20503;-59
2023/09/03 04:06:57;;;;;;;20.02;12.43;;;11.30;99.90;;;;;;5108912;28;20522;-59
2023/09/03 04:09:25;;;;;;;20.08;12.13;;;11.20;99.90;;;;;;5101807;28;20055;-58
2023/09/03 04:11:52;;;;;;;22.77;13.60;;;11.20;99.90;;;;;;5093627;28;20040;-59
2023/09/03 04:14:20;;;;;;;20.13;12.63;;;11.20;99.90;;;;;;5072999;28;20052;-59
2023/09/03 04:16:47;;;;;;;23.30;12.60;;;11.20;99.90;;;;;;5088567;28;20503;-58
2023/09/03 04:19:15;;;;;;;18.08;12.30;;;11.20;99.90;;;;;;5089780;28;20408;-58
2023/09/03 04:21:44;;;;;;;20.25;12.65;;;11.20;99.90;;;;;;5092076;28;20055;-59
2023/09/03 04:24:12;;;;;;;20.52;13.48;;;11.20;99.90;;;;;;5086348;28;20431;-59
2023/09/03 04:26:40;;;;;;;24.65;12.63;;;11.10;99.90;;;;;;5093140;28;20044;-59
2023/09/03 04:29:08;;;;;;;22.70;12.38;;;11.10;99.90;;;;;;5092179;28;20395;-59
2023/09/03 04:31:36;;;;;;;21.55;11.65;;;11.10;99.90;;;;;;5089760;28;20043;-59
2023/09/03 04:34:05;;;;;;;18.95;11.45;;;11.10;99.90;;;;;;5091260;28;20483;-58
2023/09/03 04:36:34;;;;;;;18.60;11.77;;;11.00;99.90;;;;;;5104375;28;20047;-59
2023/09/03 04:39:03;;;;;;;21.48;12.65;;;11.10;99.90;;;;;;5111891;28;20051;-59
2023/09/03 04:41:31;;;;;;;22.00;11.82;;;11.00;99.90;;;;;;5112188;28;20050;-59
2023/09/03 04:44:07;;;;;;;17.95;12.32;;;11.00;99.90;;;;;;5092401;28;20044;-59
2023/09/03 04:46:39;;;;;;;16.65;10.98;;;10.90;99.90;;;;;;5091391;28;20035;-58
2023/09/03 04:49:07;;;;;;;21.50;10.68;;;11.00;99.90;;;;;;5084038;28;20055;-59
2023/09/03 04:51:35;;;;;;;17.02;11.30;;;10.90;99.90;;;;;;5088160;28;20044;-58
2023/09/03 04:54:03;;;;;;;18.48;11.20;;;10.90;99.90;;;;;;5088468;28;20036;-58
2023/09/03 04:56:31;;;;;;;18.30;10.80;;;10.90;99.90;;;;;;5087307;28;20046;-58
2023/09/03 04:58:59;;;;;;;16.70;10.38;;;10.90;99.90;;;;;;5103987;28;20040;-58
2023/09/03 05:01:27;;;;;;;17.02;11.18;;;10.80;99.90;;;;;;5092452;28;20055;-59
2023/09/03 05:03:58;;;;;;;19.15;11.13;;;10.80;99.90;;;;;;5076508;28;20044;-59
2023/09/03 05:06:26;;;;;;;18.25;11.48;;;10.80;99.90;;;;;;5077442;28;20052;-58
2023/09/03 05:08:56;;;;;;;18.95;11.73;;;10.80;99.90;;;;;;5086278;28;20047;-58
2023/09/03 05:11:25;;;;;;;18.00;11.82;;;10.80;99.90;;;;;;5087127;28;20055;-59
2023/09/03 05:13:53;;;;;;;17.73;10.75;;;10.70;99.90;;;;;;5098396;28;20052;-58
2023/09/03 05:16:23;;;;;;;17.75;11.00;;;10.80;99.90;;;;;;5098388;28;20051;-59
2023/09/03 05:18:51;;;;;;;;;;;10.70;99.90;;;;;;5083977;28;20396;-58
2023/09/03 05:21:19;;;;;;;18.50;10.02;;;10.70;99.90;;;;;;5084935;28;19923;-59
2023/09/03 05:23:49;;;;;;;16.65;10.55;;;10.70;99.90;;;;;;5074665;28;20044;-58
2023/09/03 05:26:18;;;;;;;18.40;10.52;;;10.70;99.90;;;;;;5058190;28;20056;-59
2023/09/03 05:28:46;;;;;;;19.73;11.13;;;10.70;99.90;;;;;;5063466;28;20052;-58
2023/09/03 05:31:14;;;;;;;19.90;11.57;;;10.70;99.90;;;;;;5067772;28;20407;-58
2023/09/03 05:33:42;;;;;;;18.05;11.07;;;10.70;99.90;;;;;;5082425;28;20043;-59
2023/09/03 05:36:11;;;;;;;17.30;11.02;;;10.70;99.90;;;;;;5086078;28;20207;-59
2023/09/03 05:38:42;;;;;;;19.40;11.02;;;10.70;99.90;;;;;;5063301;28;20495;-59
2023/09/03 05:41:10;;;;;;;16.33;10.57;;;10.60;99.90;;;;;;5080711;28;20620;-58
2023/09/03 05:43:38;;;;;;;15.52;10.20;;;10.60;99.90;;;;;;5093543;28;20043;-58
2023/09/03 05:46:06;;;;;;;16.85;11.05;;;10.60;99.90;;;;;;5087279;28;20044;-58
2023/09/03 05:48:34;;;;;;;14.75;10.52;;;10.60;99.90;;;;;;5083539;28;20044;-59
2023/09/03 05:51:04;;;;;;;16.67;10.45;;;10.60;99.90;;;;;;5078990;28;20055;-58
2023/09/03 05:53:35;;;;;;;22.30;10.77;;;10.70;99.90;;;;;;5089097;28;20047;-59
2023/09/03 05:56:09;;;;;;;17.58;10.57;;;10.60;99.90;;;;;;5090135;28;20047;-59
2023/09/03 05:58:38;;;;;;;16.52;9.98;;;10.70;99.90;;;;;;5065679;28;20055;-59
2023/09/03 06:01:08;;;;;;;20.38;11.25;;;10.70;99.90;;;;;;5065519;28;20040;-59
2023/09/03 06:03:38;;;;;;;18.33;11.18;;;10.60;99.90;;;;;;5063691;28;20474;-58
2023/09/03 06:06:11;;;;;;;17.90;9.95;;;10.70;99.90;;;;;;5075980;28;20503;-58
2023/09/03 06:08:41;;;;;;;20.90;10.82;;;10.70;99.90;;;;;;5086693;28;20043;-58
2023/09/03 06:11:09;;;;;;;17.92;9.73;;;10.70;99.90;;;;;;5085672;28;20052;-58
2023/09/03 06:13:37;;;;;;;19.48;11.77;;;10.70;99.90;;;;;;5084637;28;20070;-58
2023/09/03 06:16:05;;;;;;;23.23;11.85;;;10.70;99.90;;;;;;5087479;28;20059;-58
2023/09/03 06:18:32;;;;;;;19.83;11.40;;;10.70;99.90;;;;;;5079858;28;20044;-58
2023/09/03 06:21:00;;;;;;;18.40;11.15;;;10.70;99.90;;;;;;5068032;28;20045;-58
2023/09/03 06:23:28;;;;;;;16.05;10.77;;;10.80;99.90;;;;;;5076991;28;20048;-58
2023/09/03 06:25:56;;;;;;;15.82;9.75;;;10.80;99.90;;;;;;5075250;28;20395;-58
2023/09/03 06:28:26;;;;;;;14.48;9.73;;;10.90;99.90;;;;;;5081320;28;20040;-58
2023/09/03 06:30:57;;;;;;;17.50;10.55;;;10.90;99.90;;;;;;5072919;28;20043;-59
2023/09/03 06:33:24;;;;;;;15.38;10.27;;;10.90;99.90;;;;;;5072320;28;20055;-58
2023/09/03 06:35:52;;;;;;;22.05;10.60;;;10.90;99.90;;;;;;5067966;28;20040;-59
2023/09/03 06:38:21;;;;;;;15.57;9.30;;;11.00;99.90;;;;;;5082436;28;20052;-58
2023/09/03 06:40:49;;;;;;;19.35;10.63;;;11.00;99.90;;;;;;5081385;28;20540;-58
2023/09/03 06:43:17;;;;;;;18.33;11.68;;;11.00;99.90;;;;;;5089333;28;20040;-58
2023/09/03 06:45:46;;;;;;;16.10;11.68;;;11.10;99.90;;;;;;5087763;28;20032;-58
2023/09/03 06:48:14;;;;;;;19.55;12.50;;;11.20;99.90;;;;;;5085491;28;20036;-58
2023/09/03 06:50:42;;;;;;;24.15;12.02;;;11.20;99.90;;;;;;5084035;28;20056;-58
2023/09/03 06:53:10;;;;;;;18.00;10.63;;;11.20;99.90;;;;;;5086662;28;20051;-58
2023/09/03 06:55:38;;;;;;;19.67;11.77;;;11.30;99.90;;;;;;5088824;28;20492;-59
2023/09/03 06:58:06;;;;;;;20.40;12.50;;;11.40;99.90;;;;;;5086067;28;20051;-58
2023/09/03 07:00:34;;;;;;;21.42;13.15;;;11.40;99.90;;;;;;5088348;28;20040;-58
2023/09/03 07:03:02;;;;;;;20.65;12.40;;;11.50;99.90;;;;;;5089740;28;20203;-58
2023/09/03 07:05:30;;;;;;;24.10;12.55;;;11.50;99.90;;;;;;5078500;28;20055;-59
2023/09/03 07:07:58;;;;;;;19.25;12.35;;;11.60;99.90;;;;;;5088297;28;20051;-59
2023/09/03 07:10:26;;;;;;;19.83;12.25;;;11.60;99.90;;;;;;5087546;28;20048;-59
2023/09/03 07:12:55;;;;;;;18.27;12.13;;;11.70;99.90;;;;;;5073620;28;20040;-59
2023/09/03 07:15:24;;;;;;;23.40;12.82;;;11.70;99.90;;;;;;5101091;28;20051;-59
2023/09/03 07:17:51;;;;;;;18.65;12.25;;;11.80;99.90;;;;;;5078332;28;20048;-59
2023/09/03 07:20:19;;;;;;;17.38;11.38;;;11.90;99.90;;;;;;5087675;28;20399;-59
2023/09/03 07:22:47;;;;;;;24.27;12.00;;;11.90;99.90;;;;;;5079217;28;20045;-59
2023/09/03 07:25:14;;;;;;;19.35;12.52;;;12.00;99.90;;;;;;5070921;28;20381;-59
2023/09/03 07:27:42;;;;;;;28.92;12.82;;;12.10;99.90;;;;;;5090747;28;20054;-58
2023/09/03 07:30:13;;;;;;;18.15;12.30;;;12.10;99.90;;;;;;5082792;28;20067;-58
2023/09/03 07:32:41;;;;;;;23.15;14.35;;;12.20;99.90;;;;;;5089102;28;20056;-58
2023/09/03 07:35:10;;;;;;;24.48;14.60;;;12.30;99.90;;;;;;5075549;28;20037;-58
2023/09/03 07:37:37;;;;;;;26.65;14.82;;;12.40;99.90;;;;;;5089891;28;20051;-58
2023/09/03 07:40:08;;;;;;;28.90;15.95;;;12.50;99.90;;;;;;5073547;28;20052;-58
2023/09/03 07:42:35;;;;;;;30.02;16.50;;;12.60;99.90;;;;;;5062263;28;20044;-58
2023/09/03 07:45:03;;;;;;;30.83;19.33;;;12.70;99.90;;;;;;5105393;28;20043;-57
2023/09/03 07:47:31;;;;;;;29.05;18.00;;;12.90;99.90;;;;;;5089409;28;20071;-57
2023/09/03 07:50:01;;;;;;;30.88;17.50;;;12.90;99.90;;;;;;5082188;28;20051;-58
2023/09/03 07:52:28;;;;;;;33.42;18.73;;;13.00;99.90;;;;;;5085928;28;20051;-58
2023/09/03 07:54:56;;;;;;;29.67;17.60;;;13.10;99.90;;;;;;5086842;28;20040;-58
2023/09/03 07:57:24;;;;;;;26.42;18.13;;;13.30;99.90;;;;;;5081975;28;20037;-57
2023/09/03 07:59:52;;;;;;;33.00;18.88;;;13.30;99.90;;;;;;5089696;28;20047;-58
2023/09/03 08:02:20;;;;;;;32.22;18.67;;;13.50;99.90;;;;;;5088351;28;20048;-58
2023/09/03 08:04:47;;;;;;;27.98;17.75;;;13.60;99.90;;;;;;5075004;28;20051;-59
2023/09/03 08:07:15;;;;;;;27.75;18.05;;;13.60;99.90;;;;;;5086941;28;20043;-59
2023/09/03 08:09:43;;;;;;;34.47;17.92;;;13.80;99.90;;;;;;5081590;28;20045;-59
2023/09/03 08:12:11;;;;;;;30.05;17.95;;;13.80;99.90;;;;;;5080391;28;20037;-58
2023/09/03 08:14:41;;;;;;;27.95;18.27;;;13.90;99.90;;;;;;5080262;28;20036;-59
2023/09/03 08:17:09;;;;;;;30.90;17.75;;;14.00;99.90;;;;;;5086545;28;20544;-58
2023/09/03 08:19:37;;;;;;;29.85;18.80;;;14.10;99.90;;;;;;5091026;28;20041;-59
2023/09/03 08:22:05;;;;;;;28.85;18.55;;;14.20;99.90;;;;;;5081830;28;20056;-63
2023/09/03 08:24:32;;;;;;;33.03;19.15;;;14.30;99.90;;;;;;5084954;28;20041;-58
2023/09/03 08:27:00;;;;;;;35.30;19.90;;;14.40;99.90;;;;;;5089934;28;20484;-59
2023/09/03 08:29:28;;;;;;;32.45;19.50;;;14.50;99.90;;;;;;5091872;28;20055;-60
2023/09/03 08:31:55;;;;;;;31.55;19.55;;;14.50;99.90;;;;;;5082766;28;20730;-60
2023/09/03 08:34:23;;;;;;;31.95;19.52;;;14.60;99.90;;;;;;5078968;28;20040;-58
2023/09/03 08:36:51;;;;;;;29.88;18.98;;;14.70;99.90;;;;;;5100651;28;20537;-59
2023/09/03 08:39:19;;;;;;;36.33;20.15;;;14.80;99.90;;;;;;5086232;28;20040;-59
2023/09/03 08:41:47;;;;;;;28.95;19.10;;;14.90;99.90;;;;;;5087930;28;20036;-59
2023/09/03 08:44:28;;;;;;;34.05;20.90;;;15.00;99.90;;;;;;5087070;28;20055;-59
2023/09/03 08:47:02;;;;;;;30.05;18.88;;;15.10;99.90;;;;;;5081186;28;20032;-59
2023/09/03 08:49:31;;;;;;;30.92;21.27;;;15.20;99.90;;;;;;5086675;28;20049;-59
2023/09/03 08:51:59;;;;;;;30.20;19.58;;;15.30;99.90;;;;;;5080506;28;20055;-59
2023/09/03 08:54:27;;;;;;;34.58;19.77;;;15.40;99.90;;;;;;5080245;28;20059;-59
2023/09/03 08:56:57;;;;;;;32.55;19.00;;;15.50;99.90;;;;;;5083232;28;20508;-59
2023/09/03 08:59:24;;;;;;;32.30;19.73;;;15.60;99.90;;;;;;5086483;28;20040;-59
2023/09/03 09:01:54;;;;;;;27.40;18.27;;;15.70;99.90;;;;;;5087032;28;20051;-59
2023/09/03 09:04:23;;;;;;;30.27;18.92;;;15.80;99.90;;;;;;5077790;28;20071;-59
2023/09/03 09:06:51;;;;;;;26.08;18.25;;;16.00;99.90;;;;;;5079361;28;20040;-59
2023/09/03 09:09:20;;;;;;;30.52;18.42;;;16.00;99.90;;;;;;5098286;28;20051;-58
2023/09/03 09:12:02;;;;;;;28.23;17.45;;;16.10;99.90;;;;;;5087407;28;20058;-59
2023/09/03 09:14:42;;;;;;;26.75;16.20;;;16.30;99.90;;;;;;5087225;28;20503;-59
2023/09/03 09:17:16;;;;;;;23.45;15.10;;;16.40;99.90;;;;;;5070008;28;20484;-59
2023/09/03 09:19:43;;;;;;;22.58;14.45;;;16.50;99.90;;;;;;5082508;28;20044;-59
2023/09/03 09:22:11;;;;;;;23.73;14.93;;;16.70;99.90;;;;;;5085690;28;20047;-59
2023/09/03 09:24:45;;;;;;;22.75;14.40;;;16.90;99.90;;;;;;5074518;28;20063;-59
2023/09/03 09:27:18;;;;;;;18.40;12.45;;;17.00;99.90;;;;;;5069213;28;20041;-59
2023/09/03 09:29:46;;;;;;;18.25;12.85;;;17.20;99.90;;;;;;5073025;28;20392;-59
2023/09/03 09:32:23;;;;;;;16.83;10.93;;;17.40;99.90;;;;;;5082143;28;20055;-59
2023/09/03 09:34:51;;;;;;;19.50;12.70;;;17.60;99.90;;;;;;5088157;28;20040;-59
2023/09/03 09:37:18;;;;;;;17.98;11.20;;;17.70;99.90;;;;;;5073058;28;20047;-59
2023/09/03 09:39:48;;;;;;;19.60;11.27;;;17.90;99.90;;;;;;5084040;28;20044;-59
2023/09/03 09:42:19;;;;;;;14.45;10.30;;;18.10;99.90;;;;;;5073937;28;20033;-59
2023/09/03 09:44:53;;;;;;;14.57;7.63;;;18.30;99.90;;;;;;5072137;28;20383;-59
2023/09/03 09:47:21;;;;;;;11.50;6.38;;;18.40;99.90;;;;;;5069410;28;20044;-59
2023/09/03 09:49:52;;;;;;;9.65;6.10;;;18.50;99.90;;;;;;5072137;28;20494;-59
2023/09/03 09:52:20;;;;;;;9.00;5.95;;;18.70;99.90;;;;;;5074795;28;20044;-59
2023/09/03 09:54:49;;;;;;;8.63;5.85;;;18.80;99.90;;;;;;5073763;28;20048;-59
2023/09/03 09:57:23;;;;;;;14.23;6.55;;;19.00;99.90;;;;;;5068661;28;20103;-59
2023/09/03 09:59:53;;;;;;;11.93;6.95;;;19.10;99.90;;;;;;5076108;28;20044;-59
2023/09/03 10:02:21;;;;;;;;;;;19.20;99.90;;;;;;5072607;28;20049;-59
2023/09/03 10:04:51;;;;;;;11.77;7.82;;;19.40;99.90;;;;;;5071054;28;20417;-59
2023/09/03 10:07:19;;;;;;;12.13;7.75;;;19.50;99.90;;;;;;5070914;28;20048;-59
2023/09/03 10:09:47;;;;;;;12.95;6.47;;;19.60;99.90;;;;;;5081396;28;20478;-59
2023/09/03 10:12:15;;;;;;;7.70;5.85;;;19.80;99.90;;;;;;5064733;28;20484;-59
2023/09/03 10:14:42;;;;;;;9.10;5.70;;;20.00;99.90;;;;;;5070698;28;20041;-59
2023/09/03 10:17:11;;;;;;;7.97;6.03;;;20.10;99.90;;;;;;5062292;28;20348;-60
2023/09/03 10:19:49;;;;;;;7.03;5.95;;;20.20;99.90;;;;;;5061244;28;20040;-59
2023/09/03 10:22:19;;;;;;;12.40;6.93;;;20.30;99.90;;;;;;5093045;28;20138;-59
2023/09/03 10:24:52;;;;;;;7.72;5.60;;;20.40;99.90;;;;;;5074582;28;20044;-59
2023/09/03 10:27:25;;;;;;;8.10;5.20;;;20.60;99.90;;;;;;5073400;28;20048;-59
2023/09/03 10:29:57;;;;;;;5.88;4.20;;;20.70;99.90;;;;;;5080027;28;20032;-59
2023/09/03 10:32:26;;;;;;;5.40;4.28;;;20.90;99.90;;;;;;5090187;28;20044;-59
2023/09/03 10:34:53;;;;;;;8.07;4.65;;;21.00;99.90;;;;;;5079207;28;20368;-59
2023/09/03 10:37:34;;;;;;;6.32;4.53;;;21.20;99.90;;;;;;5094687;28;20094;-59
2023/09/03 10:40:23;;;;;;;4.45;3.45;;;21.30;99.90;;;;;;5091191;28;20056;-59
2023/09/03 10:42:53;;;;;;;6.15;3.50;;;21.40;99.90;;;;;;5090490;28;20201;-59
2023/09/03 10:45:21;;;;;;;4.80;3.57;;;21.50;99.90;;;;;;5112331;28;20044;-59
2023/09/03 10:48:02;;;;;;;6.13;3.60;;;21.70;99.90;;;;;;5103221;28;20677;-60
2023/09/03 10:50:45;;;;;;;7.05;3.30;;;21.80;99.90;;;;;;5112143;28;20036;-60
2023/09/03 10:53:41;;;;;;;6.03;3.15;;;21.90;99.90;;;;;;5077229;28;20052;-59
2023/09/03 10:56:16;;;;;;;3.40;2.80;;;22.10;99.90;;;;;;5077689;28;20059;-60
2023/09/03 10:59:00;;;;;;;6.32;3.30;;;22.20;99.90;;;;;;5091628;28;20047;-59
2023/09/03 11:01:31;;;;;;;3.78;2.78;;;22.40;99.90;;;;;;5089855;28;20069;-59
2023/09/03 11:04:03;;;;;;;4.50;3.22;;;22.50;99.90;;;;;;5085396;28;20060;-60
2023/09/03 11:06:33;;;;;;;3.53;2.60;;;22.60;99.90;;;;;;5097670;28;20055;-59
2023/09/03 11:09:01;;;;;;;5.60;3.28;;;22.70;99.90;;;;;;5090624;28;20060;-59
2023/09/03 11:11:33;;;;;;;4.10;3.08;;;22.80;99.90;;;;;;5090077;28;20063;-59
2023/09/03 11:14:02;;;;;;;4.75;3.28;;;22.80;99.90;;;;;;5088516;28;20062;-59
2023/09/03 11:16:31;;;;;;;6.03;3.00;;;22.90;99.90;;;;;;5089980;28;20472;-60
2023/09/03 11:19:00;;;;;;;2.55;2.33;;;23.00;99.90;;;;;;5090981;28;20391;-60
2023/09/03 11:21:28;;;;;;;2.83;2.53;;;23.00;99.90;;;;;;5087672;28;20051;-59
2023/09/03 11:24:18;;;;;;;4.63;2.90;;;23.20;99.90;;;;;;5085276;28;20051;-60
2023/09/03 11:26:46;;;;;;;3.35;2.70;;;23.30;99.90;;;;;;5087163;28;20055;-59
2023/09/03 11:29:23;;;;;;;4.45;2.80;;;23.40;99.90;;;;;;5087391;28;20206;-59
2023/09/03 11:31:51;;;;;;;5.57;2.83;;;23.60;99.90;;;;;;5087285;28;20044;-60
2023/09/03 11:34:22;;;;;;;5.00;3.00;;;23.80;99.90;;;;;;5085904;28;20044;-60
2023/09/03 11:36:52;;;;;;;4.03;2.80;;;24.00;99.90;;;;;;5101057;28;20051;-60
2023/09/03 11:39:19;;;;;;;3.67;2.70;;;24.10;99.90;;;;;;5087627;28;20052;-60
2023/09/03 11:41:47;;;;;;;4.47;3.30;;;24.30;99.90;;;;;;5087182;28;20359;-61
2023/09/03 11:44:23;;;;;;;3.88;2.80;;;24.50;99.90;;;;;;5098765;28;20060;-60
2023/09/03 11:47:02;;;;;;;6.93;2.80;;;24.70;99.90;;;;;;5087616;28;20143;-60
2023/09/03 11:49:30;;;;;;;3.80;2.53;;;24.80;99.90;;;;;;5085999;28;20052;-61
2023/09/03 11:52:27;;;;;;;3.75;2.72;;;25.00;99.90;;;;;;5087004;28;20650;-61
2023/09/03 11:54:57;;;;;;;4.43;3.05;;;25.20;99.90;;;;;;5065639;28;20053;-61
2023/09/03 11:57:25;;;;;;;2.63;2.25;;;25.50;99.90;;;;;;5079752;28;20059;-63
2023/09/03 11:59:52;;;;;;;4.20;2.78;;;25.80;99.90;;;;;;5087470;28;20048;-60
2023/09/03 12:02:21;;;;;;;4.78;2.58;;;26.10;99.90;;;;;;5087197;28;20094;-61
2023/09/03 12:04:49;;;;;;;3.85;2.47;;;26.40;99.90;;;;;;5070680;28;20052;-59
2023/09/03 12:07:17;;;;;;;5.57;2.83;;;26.60;99.90;;;;;;5072442;28;20055;-60
2023/09/03 12:09:50;;;;;;;4.63;3.08;;;26.80;99.90;;;;;;5079820;28;20496;-59
2023/09/03 12:12:18;;;;;;;4.78;2.97;;;27.00;99.90;;;;;;5084025;28;20040;-59
2023/09/03 12:14:46;;;;;;;3.20;2.85;;;27.20;99.90;;;;;;5087092;28;20040;-60
2023/09/03 12:17:28;;;;;;;6.07;2.65;;;27.40;99.60;;;;;;5085486;28;20051;-59
2023/09/03 12:19:57;;;;;;;2.67;2.45;;;27.50;99.50;;;;;;5065480;28;20501;-60
2023/09/03 12:22:27;;;;;;;5.53;2.53;;;27.80;99.90;;;;;;5072470;28;20403;-60
2023/09/03 12:24:55;;;;;;;5.40;2.90;;;28.10;99.90;;;;;;5084452;28;20048;-61
2023/09/03 12:27:23;;;;;;;3.28;2.67;;;28.40;99.50;;;;;;5071361;28;20040;-60
2023/09/03 12:29:57;;;;;;;4.07;2.78;;;28.70;98.30;;;;;;5070701;28;20040;-61
2023/09/03 12:32:33;;;;;;;3.22;2.33;;;28.90;97.30;;;;;;5071800;28;20044;-61
2023/09/03 12:35:18;;;;;;;1.95;1.75;;;29.10;96.40;;;;;;5071864;28;20381;-59
2023/09/03 12:37:46;;;;;;;4.22;2.10;;;29.30;97.00;;;;;;5093526;28;20538;-58
2023/09/03 12:40:14;;;;;;;2.30;2.10;;;29.50;96.80;;;;;;5085498;28;20051;-60
2023/09/03 12:42:42;;;;;;;2.78;1.85;;;29.70;95.90;;;;;;5074132;28;20059;-60
2023/09/03 12:45:10;;;;;;;2.92;1.90;;;30.00;96.50;;;;;;5084056;28;20044;-60
2023/09/03 12:47:37;;;;;;;3.22;2.22;;;30.40;96.00;;;;;;5084225;28;20036;-60